sensor_id;sensor_type;location;lat;lon;timestamp;P1;durP1;ratioP1;P2;durP2;ratioP2
20306;SDS011;10312;52.434;13.206;2023-01-28T00:00:54;6.45;;;2.15;;
20306;SDS011;10312;52.434;13.206;2023-01-28T00:03:21;6.40;;;2.60;;
20306;SDS011;10312;52.434;13.206;2023-01-28T00:05:48;9.70;;;2.92;;
20306;SDS011;10312;52.434;13.206;2023-01-28T00:08:14;6.88;;;2.50;;
20306;SDS011;10312;52.434;13.206;2023-01-28T00:10:41;5.15;;;2.20;;
20306;SDS011;10312;52.434;13.206;2023-01-28T00:13:11;6.35;;;2.47;;
20306;SDS011;10312;52.434;13.206;2023-01-28T00:15:43;5.53;;;2.20;;
20306;SDS011;10312;52.434;13.206;2023-01-28T00:18:10;5.28;;;2.38;;
20306;SDS011;10312;52.434;13.206;2023-01-28T00:20:36;7.03;;;2.42;;
20306;SDS011;10312;52.434;13.206;2023-01-28T00:23:03;7.22;;;2.53;;
20306;SDS011;10312;52.434;13.206;2023-01-28T00:25:30;5.97;;;2.63;;
20306;SDS011;10312;52.434;13.206;2023-01-28T00:27:56;6.97;;;2.30;;
20306;SDS011;10312;52.434;13.206;2023-01-28T00:30:23;5.28;;;2.50;;
20306;SDS011;10312;52.434;13.206;2023-01-28T00:32:50;6.47;;;2.70;;
20306;SDS011;10312;52.434;13.206;2023-01-28T00:35:21;9.07;;;2.08;;
20306;SDS011;10312;52.434;13.206;2023-01-28T00:37:47;4.10;;;2.10;;
20306;SDS011;10312;52.434;13.206;2023-01-28T00:40:14;8.85;;;2.63;;
20306;SDS011;10312;52.434;13.206;2023-01-28T00:42:41;5.68;;;2.03;;
20306;SDS011;10312;52.434;13.206;2023-01-28T00:45:07;5.90;;;2.20;;
20306;SDS011;10312;52.434;13.206;2023-01-28T00:47:34;6.35;;;2.35;;
20306;SDS011;10312;52.434;13.206;2023-01-28T00:50:01;5.95;;;2.60;;
20306;SDS011;10312;52.434;13.206;2023-01-28T00:52:29;5.05;;;2.03;;
20306;SDS011;10312;52.434;13.206;2023-01-28T00:54:56;9.63;;;2.40;;
20306;SDS011;10312;52.434;13.206;2023-01-28T00:57:24;4.82;;;2.33;;
20306;SDS011;10312;52.434;13.206;2023-01-28T00:59:51;11.02;;;2.22;;
20306;SDS011;10312;52.434;13.206;2023-01-28T01:02:17;7.72;;;2.40;;
20306;SDS011;10312;52.434;13.206;2023-01-28T01:04:44;6.53;;;2.63;;
20306;SDS011;10312;52.434;13.206;2023-01-28T01:07:23;7.55;;;2.22;;
20306;SDS011;10312;52.434;13.206;2023-01-28T01:10:00;6.05;;;2.58;;
20306;SDS011;10312;52.434;13.206;2023-01-28T01:12:28;8.02;;;2.20;;
20306;SDS011;10312;52.434;13.206;2023-01-28T01:14:55;8.20;;;2.85;;
20306;SDS011;10312;52.434;13.206;2023-01-28T01:17:22;5.68;;;2.25;;
20306;SDS011;10312;52.434;13.206;2023-01-28T01:19:49;6.32;;;2.17;;
20306;SDS011;10312;52.434;13.206;2023-01-28T01:22:15;6.00;;;2.17;;
20306;SDS011;10312;52.434;13.206;2023-01-28T01:24:42;4.50;;;2.20;;
20306;SDS011;10312;52.434;13.206;2023-01-28T01:27:09;6.13;;;2.30;;
20306;SDS011;10312;52.434;13.206;2023-01-28T01:29:35;5.60;;;2.22;;
20306;SDS011;10312;52.434;13.206;2023-01-28T01:32:04;9.52;;;2.70;;
20306;SDS011;10312;52.434;13.206;2023-01-28T01:34:31;5.43;;;2.35;;
20306;SDS011;10312;52.434;13.206;2023-01-28T01:36:58;6.40;;;2.35;;
20306;SDS011;10312;52.434;13.206;2023-01-28T01:39:25;4.95;;;2.03;;
20306;SDS011;10312;52.434;13.206;2023-01-28T01:41:52;5.72;;;2.13;;
20306;SDS011;10312;52.434;13.206;2023-01-28T01:48:06;5.65;;;2.17;;
20306;SDS011;10312;52.434;13.206;2023-01-28T01:50:28;5.13;;;2.00;;
20306;SDS011;10312;52.434;13.206;2023-01-28T01:52:59;8.57;;;2.70;;
20306;SDS011;10312;52.434;13.206;2023-01-28T01:55:29;6.30;;;2.15;;
20306;SDS011;10312;52.434;13.206;2023-01-28T01:57:57;7.13;;;2.25;;
20306;SDS011;10312;52.434;13.206;2023-01-28T02:00:27;7.38;;;2.38;;
20306;SDS011;10312;52.434;13.206;2023-01-28T02:02:54;6.45;;;2.20;;
20306;SDS011;10312;52.434;13.206;2023-01-28T02:05:22;8.23;;;1.92;;
20306;SDS011;10312;52.434;13.206;2023-01-28T02:07:49;4.68;;;2.22;;
20306;SDS011;10312;52.434;13.206;2023-01-28T02:10:20;6.03;;;2.42;;
20306;SDS011;10312;52.434;13.206;2023-01-28T02:12:52;5.78;;;2.22;;
20306;SDS011;10312;52.434;13.206;2023-01-28T02:15:24;5.32;;;2.25;;
20306;SDS011;10312;52.434;13.206;2023-01-28T02:17:51;6.55;;;1.90;;
20306;SDS011;10312;52.434;13.206;2023-01-28T02:20:19;4.82;;;2.20;;
20306;SDS011;10312;52.434;13.206;2023-01-28T02:26:45;5.25;;;2.08;;
20306;SDS011;10312;52.434;13.206;2023-01-28T02:29:08;6.28;;;2.20;;
20306;SDS011;10312;52.434;13.206;2023-01-28T02:31:47;5.47;;;1.77;;
20306;SDS011;10312;52.434;13.206;2023-01-28T02:34:24;5.32;;;2.20;;
20306;SDS011;10312;52.434;13.206;2023-01-28T02:37:01;6.00;;;2.13;;
20306;SDS011;10312;52.434;13.206;2023-01-28T02:39:39;6.43;;;2.08;;
20306;SDS011;10312;52.434;13.206;2023-01-28T02:42:17;6.78;;;2.50;;
20306;SDS011;10312;52.434;13.206;2023-01-28T02:44:46;5.03;;;2.00;;
20306;SDS011;10312;52.434;13.206;2023-01-28T02:47:14;5.40;;;2.03;;
20306;SDS011;10312;52.434;13.206;2023-01-28T02:50:02;4.63;;;2.08;;
20306;SDS011;10312;52.434;13.206;2023-01-28T02:55:42;3.58;;;1.95;;
20306;SDS011;10312;52.434;13.206;2023-01-28T03:01:22;4.40;;;2.10;;
20306;SDS011;10312;52.434;13.206;2023-01-28T03:06:25;7.50;;;1.80;;
20306;SDS011;10312;52.434;13.206;2023-01-28T03:08:57;6.30;;;2.10;;
20306;SDS011;10312;52.434;13.206;2023-01-28T03:14:55;3.95;;;1.92;;
20306;SDS011;10312;52.434;13.206;2023-01-28T03:17:44;6.35;;;2.08;;
20306;SDS011;10312;52.434;13.206;2023-01-28T03:20:40;7.47;;;2.03;;
20306;SDS011;10312;52.434;13.206;2023-01-28T03:23:31;7.45;;;2.28;;
20306;SDS011;10312;52.434;13.206;2023-01-28T03:26:22;5.50;;;2.05;;
20306;SDS011;10312;52.434;13.206;2023-01-28T03:29:09;5.75;;;2.00;;
20306;SDS011;10312;52.434;13.206;2023-01-28T03:31:59;5.72;;;2.10;;
20306;SDS011;10312;52.434;13.206;2023-01-28T03:34:45;4.28;;;2.00;;
20306;SDS011;10312;52.434;13.206;2023-01-28T03:37:31;4.78;;;2.10;;
20306;SDS011;10312;52.434;13.206;2023-01-28T03:40:08;4.00;;;1.98;;
20306;SDS011;10312;52.434;13.206;2023-01-28T03:42:35;3.30;;;1.60;;
20306;SDS011;10312;52.434;13.206;2023-01-28T03:45:09;5.10;;;1.85;;
20306;SDS011;10312;52.434;13.206;2023-01-28T03:47:36;4.40;;;2.13;;
20306;SDS011;10312;52.434;13.206;2023-01-28T03:50:08;3.67;;;1.70;;
20306;SDS011;10312;52.434;13.206;2023-01-28T03:52:48;6.53;;;2.30;;
20306;SDS011;10312;52.434;13.206;2023-01-28T03:55:28;4.60;;;2.00;;
20306;SDS011;10312;52.434;13.206;2023-01-28T03:57:55;4.18;;;2.20;;
20306;SDS011;10312;52.434;13.206;2023-01-28T04:00:22;7.22;;;2.30;;
20306;SDS011;10312;52.434;13.206;2023-01-28T04:02:49;5.78;;;2.30;;
20306;SDS011;10312;52.434;13.206;2023-01-28T04:05:18;7.13;;;2.63;;
20306;SDS011;10312;52.434;13.206;2023-01-28T04:07:47;6.03;;;2.03;;
20306;SDS011;10312;52.434;13.206;2023-01-28T04:10:49;6.47;;;1.90;;
20306;SDS011;10312;52.434;13.206;2023-01-28T04:13:21;4.15;;;2.08;;
20306;SDS011;10312;52.434;13.206;2023-01-28T04:15:48;5.80;;;3.17;;
20306;SDS011;10312;52.434;13.206;2023-01-28T04:18:16;4.78;;;1.85;;
20306;SDS011;10312;52.434;13.206;2023-01-28T04:20:43;4.65;;;1.73;;
20306;SDS011;10312;52.434;13.206;2023-01-28T04:23:10;4.22;;;2.20;;
20306;SDS011;10312;52.434;13.206;2023-01-28T04:25:36;4.40;;;1.90;;
20306;SDS011;10312;52.434;13.206;2023-01-28T04:28:06;5.22;;;2.15;;
20306;SDS011;10312;52.434;13.206;2023-01-28T04:30:33;5.88;;;2.15;;
20306;SDS011;10312;52.434;13.206;2023-01-28T04:33:21;6.93;;;2.10;;
20306;SDS011;10312;52.434;13.206;2023-01-28T04:36:10;6.13;;;2.53;;
20306;SDS011;10312;52.434;13.206;2023-01-28T04:38:44;5.20;;;2.03;;
20306;SDS011;10312;52.434;13.206;2023-01-28T04:41:30;4.55;;;1.98;;
20306;SDS011;10312;52.434;13.206;2023-01-28T04:44:03;4.15;;;2.08;;
20306;SDS011;10312;52.434;13.206;2023-01-28T04:46:49;5.88;;;2.33;;
20306;SDS011;10312;52.434;13.206;2023-01-28T04:49:43;4.15;;;1.98;;
20306;SDS011;10312;52.434;13.206;2023-01-28T04:52:24;6.03;;;2.28;;
20306;SDS011;10312;52.434;13.206;2023-01-28T04:55:04;5.40;;;1.85;;
20306;SDS011;10312;52.434;13.206;2023-01-28T04:57:31;3.92;;;2.00;;
20306;SDS011;10312;52.434;13.206;2023-01-28T05:00:01;3.22;;;1.70;;
20306;SDS011;10312;52.434;13.206;2023-01-28T05:02:29;3.78;;;1.60;;
20306;SDS011;10312;52.434;13.206;2023-01-28T05:04:59;6.38;;;2.22;;
20306;SDS011;10312;52.434;13.206;2023-01-28T05:07:39;4.90;;;1.90;;
20306;SDS011;10312;52.434;13.206;2023-01-28T05:10:06;4.30;;;1.90;;
20306;SDS011;10312;52.434;13.206;2023-01-28T05:12:33;3.25;;;1.60;;
20306;SDS011;10312;52.434;13.206;2023-01-28T05:15:03;5.13;;;1.90;;
20306;SDS011;10312;52.434;13.206;2023-01-28T05:17:30;4.10;;;2.08;;
20306;SDS011;10312;52.434;13.206;2023-01-28T05:19:57;7.32;;;2.03;;
20306;SDS011;10312;52.434;13.206;2023-01-28T05:22:26;3.38;;;1.55;;
20306;SDS011;10312;52.434;13.206;2023-01-28T05:25:13;4.88;;;1.80;;
20306;SDS011;10312;52.434;13.206;2023-01-28T05:27:41;3.95;;;1.85;;
20306;SDS011;10312;52.434;13.206;2023-01-28T05:30:07;4.28;;;1.60;;
20306;SDS011;10312;52.434;13.206;2023-01-28T05:32:35;4.95;;;1.80;;
20306;SDS011;10312;52.434;13.206;2023-01-28T05:35:02;4.82;;;1.75;;
20306;SDS011;10312;52.434;13.206;2023-01-28T05:37:29;2.63;;;1.50;;
20306;SDS011;10312;52.434;13.206;2023-01-28T05:39:56;5.65;;;1.58;;
20306;SDS011;10312;52.434;13.206;2023-01-28T05:42:23;3.67;;;1.55;;
20306;SDS011;10312;52.434;13.206;2023-01-28T05:44:55;8.55;;;1.98;;
20306;SDS011;10312;52.434;13.206;2023-01-28T05:47:37;3.80;;;1.60;;
20306;SDS011;10312;52.434;13.206;2023-01-28T05:50:18;4.32;;;1.90;;
20306;SDS011;10312;52.434;13.206;2023-01-28T05:53:04;4.78;;;1.90;;
20306;SDS011;10312;52.434;13.206;2023-01-28T05:55:32;4.45;;;2.22;;
20306;SDS011;10312;52.434;13.206;2023-01-28T05:57:59;8.40;;;1.98;;
20306;SDS011;10312;52.434;13.206;2023-01-28T06:00:26;3.33;;;1.70;;
20306;SDS011;10312;52.434;13.206;2023-01-28T06:02:53;4.47;;;1.77;;
20306;SDS011;10312;52.434;13.206;2023-01-28T06:05:21;3.38;;;1.67;;
20306;SDS011;10312;52.434;13.206;2023-01-28T06:07:49;5.90;;;1.98;;
20306;SDS011;10312;52.434;13.206;2023-01-28T06:10:15;5.60;;;2.47;;
20306;SDS011;10312;52.434;13.206;2023-01-28T06:12:46;2.97;;;1.77;;
20306;SDS011;10312;52.434;13.206;2023-01-28T06:15:31;4.47;;;1.67;;
20306;SDS011;10312;52.434;13.206;2023-01-28T06:18:10;3.47;;;1.90;;
20306;SDS011;10312;52.434;13.206;2023-01-28T06:20:37;5.03;;;1.95;;
20306;SDS011;10312;52.434;13.206;2023-01-28T06:23:04;4.28;;;2.20;;
20306;SDS011;10312;52.434;13.206;2023-01-28T06:25:34;3.72;;;2.30;;
20306;SDS011;10312;52.434;13.206;2023-01-28T06:28:07;6.22;;;2.45;;
20306;SDS011;10312;52.434;13.206;2023-01-28T06:30:33;6.20;;;2.60;;
20306;SDS011;10312;52.434;13.206;2023-01-28T06:33:00;5.55;;;2.42;;
20306;SDS011;10312;52.434;13.206;2023-01-28T06:35:27;5.50;;;2.97;;
20306;SDS011;10312;52.434;13.206;2023-01-28T06:37:53;4.88;;;2.50;;
20306;SDS011;10312;52.434;13.206;2023-01-28T06:40:20;4.55;;;2.50;;
20306;SDS011;10312;52.434;13.206;2023-01-28T06:42:51;7.18;;;2.80;;
20306;SDS011;10312;52.434;13.206;2023-01-28T06:45:21;5.30;;;2.33;;
20306;SDS011;10312;52.434;13.206;2023-01-28T06:47:47;6.75;;;2.45;;
20306;SDS011;10312;52.434;13.206;2023-01-28T06:50:14;4.82;;;2.45;;
20306;SDS011;10312;52.434;13.206;2023-01-28T06:52:41;5.28;;;2.80;;
20306;SDS011;10312;52.434;13.206;2023-01-28T06:55:08;5.28;;;2.72;;
20306;SDS011;10312;52.434;13.206;2023-01-28T06:57:38;7.63;;;3.72;;
20306;SDS011;10312;52.434;13.206;2023-01-28T07:00:07;7.10;;;3.17;;
20306;SDS011;10312;52.434;13.206;2023-01-28T07:02:36;8.60;;;3.67;;
20306;SDS011;10312;52.434;13.206;2023-01-28T07:05:05;8.30;;;4.57;;
20306;SDS011;10312;52.434;13.206;2023-01-28T07:07:31;6.78;;;3.75;;
20306;SDS011;10312;52.434;13.206;2023-01-28T07:09:58;8.55;;;3.60;;
20306;SDS011;10312;52.434;13.206;2023-01-28T07:12:25;8.50;;;3.92;;
20306;SDS011;10312;52.434;13.206;2023-01-28T07:14:51;8.25;;;3.97;;
20306;SDS011;10312;52.434;13.206;2023-01-28T07:17:18;7.53;;;3.83;;
20306;SDS011;10312;52.434;13.206;2023-01-28T07:19:45;8.23;;;4.00;;
20306;SDS011;10312;52.434;13.206;2023-01-28T07:22:11;8.43;;;3.88;;
20306;SDS011;10312;52.434;13.206;2023-01-28T07:24:38;7.25;;;3.63;;
20306;SDS011;10312;52.434;13.206;2023-01-28T07:27:05;6.45;;;3.20;;
20306;SDS011;10312;52.434;13.206;2023-01-28T07:29:31;6.10;;;3.80;;
20306;SDS011;10312;52.434;13.206;2023-01-28T07:31:58;6.10;;;3.17;;
20306;SDS011;10312;52.434;13.206;2023-01-28T07:34:25;5.80;;;2.45;;
20306;SDS011;10312;52.434;13.206;2023-01-28T07:36:51;5.22;;;2.15;;
20306;SDS011;10312;52.434;13.206;2023-01-28T07:39:18;4.43;;;2.03;;
20306;SDS011;10312;52.434;13.206;2023-01-28T07:41:45;5.57;;;2.33;;
20306;SDS011;10312;52.434;13.206;2023-01-28T07:44:29;5.13;;;2.70;;
20306;SDS011;10312;52.434;13.206;2023-01-28T07:46:56;3.97;;;2.33;;
20306;SDS011;10312;52.434;13.206;2023-01-28T07:49:22;5.72;;;2.83;;
20306;SDS011;10312;52.434;13.206;2023-01-28T07:51:49;4.63;;;2.60;;
20306;SDS011;10312;52.434;13.206;2023-01-28T07:54:16;4.10;;;1.73;;
20306;SDS011;10312;52.434;13.206;2023-01-28T07:56:42;4.40;;;2.35;;
20306;SDS011;10312;52.434;13.206;2023-01-28T07:59:09;4.68;;;2.08;;
20306;SDS011;10312;52.434;13.206;2023-01-28T08:01:36;3.17;;;1.70;;
20306;SDS011;10312;52.434;13.206;2023-01-28T08:04:06;2.58;;;1.25;;
20306;SDS011;10312;52.434;13.206;2023-01-28T08:06:33;3.28;;;1.55;;
20306;SDS011;10312;52.434;13.206;2023-01-28T08:09:06;3.05;;;1.40;;
20306;SDS011;10312;52.434;13.206;2023-01-28T08:11:36;2.65;;;1.42;;
20306;SDS011;10312;52.434;13.206;2023-01-28T08:14:03;3.83;;;1.73;;
20306;SDS011;10312;52.434;13.206;2023-01-28T08:16:30;3.95;;;1.77;;
20306;SDS011;10312;52.434;13.206;2023-01-28T08:18:57;3.35;;;1.92;;
20306;SDS011;10312;52.434;13.206;2023-01-28T08:21:23;4.45;;;1.58;;
20306;SDS011;10312;52.434;13.206;2023-01-28T08:23:50;5.28;;;2.00;;
20306;SDS011;10312;52.434;13.206;2023-01-28T08:26:17;2.95;;;1.48;;
20306;SDS011;10312;52.434;13.206;2023-01-28T08:28:43;2.60;;;1.55;;
20306;SDS011;10312;52.434;13.206;2023-01-28T08:31:10;5.93;;;1.67;;
20306;SDS011;10312;52.434;13.206;2023-01-28T08:33:37;2.33;;;1.27;;
20306;SDS011;10312;52.434;13.206;2023-01-28T08:36:04;4.03;;;1.42;;
20306;SDS011;10312;52.434;13.206;2023-01-28T08:38:31;3.70;;;1.27;;
20306;SDS011;10312;52.434;13.206;2023-01-28T08:40:57;2.30;;;1.48;;
20306;SDS011;10312;52.434;13.206;2023-01-28T08:43:28;4.05;;;1.30;;
20306;SDS011;10312;52.434;13.206;2023-01-28T08:45:54;3.30;;;1.33;;
20306;SDS011;10312;52.434;13.206;2023-01-28T08:48:21;2.65;;;1.15;;
20306;SDS011;10312;52.434;13.206;2023-01-28T08:50:48;2.17;;;1.30;;
20306;SDS011;10312;52.434;13.206;2023-01-28T08:53:17;2.90;;;1.30;;
20306;SDS011;10312;52.434;13.206;2023-01-28T08:55:44;2.53;;;1.30;;
20306;SDS011;10312;52.434;13.206;2023-01-28T08:58:13;4.15;;;1.38;;
20306;SDS011;10312;52.434;13.206;2023-01-28T09:00:41;4.18;;;1.20;;
20306;SDS011;10312;52.434;13.206;2023-01-28T09:03:08;2.53;;;1.45;;
20306;SDS011;10312;52.434;13.206;2023-01-28T09:05:36;3.95;;;1.33;;
20306;SDS011;10312;52.434;13.206;2023-01-28T09:08:04;3.35;;;1.33;;
20306;SDS011;10312;52.434;13.206;2023-01-28T09:10:35;2.67;;;1.42;;
20306;SDS011;10312;52.434;13.206;2023-01-28T09:13:07;3.55;;;1.27;;
20306;SDS011;10312;52.434;13.206;2023-01-28T09:15:35;2.63;;;1.23;;
20306;SDS011;10312;52.434;13.206;2023-01-28T09:18:03;3.17;;;1.00;;
20306;SDS011;10312;52.434;13.206;2023-01-28T09:20:30;2.58;;;1.10;;
20306;SDS011;10312;52.434;13.206;2023-01-28T09:22:58;2.47;;;1.05;;
20306;SDS011;10312;52.434;13.206;2023-01-28T09:25:26;1.95;;;0.70;;
20306;SDS011;10312;52.434;13.206;2023-01-28T09:27:52;3.90;;;0.85;;
20306;SDS011;10312;52.434;13.206;2023-01-28T09:30:19;0.90;;;0.70;;
20306;SDS011;10312;52.434;13.206;2023-01-28T09:32:52;3.75;;;0.90;;
20306;SDS011;10312;52.434;13.206;2023-01-28T09:35:19;1.80;;;0.85;;
20306;SDS011;10312;52.434;13.206;2023-01-28T09:37:46;2.10;;;0.75;;
20306;SDS011;10312;52.434;13.206;2023-01-28T09:40:14;2.10;;;1.40;;
20306;SDS011;10312;52.434;13.206;2023-01-28T09:45:59;1.48;;;0.70;;
20306;SDS011;10312;52.434;13.206;2023-01-28T09:48:30;2.47;;;0.80;;
20306;SDS011;10312;52.434;13.206;2023-01-28T09:51:05;2.65;;;0.80;;
20306;SDS011;10312;52.434;13.206;2023-01-28T09:53:35;2.38;;;0.80;;
20306;SDS011;10312;52.434;13.206;2023-01-28T09:56:08;3.20;;;0.90;;
20306;SDS011;10312;52.434;13.206;2023-01-28T09:58:40;1.55;;;0.88;;
20306;SDS011;10312;52.434;13.206;2023-01-28T10:06:44;2.05;;;0.73;;
20306;SDS011;10312;52.434;13.206;2023-01-28T10:09:31;1.13;;;0.65;;
20306;SDS011;10312;52.434;13.206;2023-01-28T10:17:48;2.90;;;0.57;;
20306;SDS011;10312;52.434;13.206;2023-01-28T10:20:19;1.70;;;0.60;;
20306;SDS011;10312;52.434;13.206;2023-01-28T10:22:53;2.58;;;0.60;;
20306;SDS011;10312;52.434;13.206;2023-01-28T10:25:30;2.30;;;0.50;;
20306;SDS011;10312;52.434;13.206;2023-01-28T10:27:58;2.13;;;0.95;;
20306;SDS011;10312;52.434;13.206;2023-01-28T10:30:29;1.10;;;0.57;;
20306;SDS011;10312;52.434;13.206;2023-01-28T10:33:04;1.27;;;0.60;;
20306;SDS011;10312;52.434;13.206;2023-01-28T10:35:38;2.80;;;0.70;;
20306;SDS011;10312;52.434;13.206;2023-01-28T10:38:07;3.58;;;0.70;;
20306;SDS011;10312;52.434;13.206;2023-01-28T10:40:37;3.03;;;0.80;;
20306;SDS011;10312;52.434;13.206;2023-01-28T10:43:07;1.55;;;0.63;;
20306;SDS011;10312;52.434;13.206;2023-01-28T10:45:37;2.63;;;1.00;;
20306;SDS011;10312;52.434;13.206;2023-01-28T10:48:12;1.67;;;0.90;;
20306;SDS011;10312;52.434;13.206;2023-01-28T10:50:57;2.83;;;1.00;;
20306;SDS011;10312;52.434;13.206;2023-01-28T10:53:43;3.60;;;1.23;;
20306;SDS011;10312;52.434;13.206;2023-01-28T10:56:22;2.33;;;1.00;;
20306;SDS011;10312;52.434;13.206;2023-01-28T10:58:56;4.80;;;1.35;;
20306;SDS011;10312;52.434;13.206;2023-01-28T11:04:33;2.30;;;0.88;;
20306;SDS011;10312;52.434;13.206;2023-01-28T11:07:02;3.40;;;0.73;;
20306;SDS011;10312;52.434;13.206;2023-01-28T11:09:43;3.97;;;0.90;;
20306;SDS011;10312;52.434;13.206;2023-01-28T11:12:33;3.03;;;0.70;;
20306;SDS011;10312;52.434;13.206;2023-01-28T11:14:59;3.30;;;1.00;;
20306;SDS011;10312;52.434;13.206;2023-01-28T11:17:33;3.10;;;1.00;;
20306;SDS011;10312;52.434;13.206;2023-01-28T11:20:23;2.42;;;0.93;;
20306;SDS011;10312;52.434;13.206;2023-01-28T11:22:49;3.15;;;0.90;;
20306;SDS011;10312;52.434;13.206;2023-01-28T11:25:29;2.95;;;0.93;;
20306;SDS011;10312;52.434;13.206;2023-01-28T11:27:58;4.93;;;0.80;;
20306;SDS011;10312;52.434;13.206;2023-01-28T11:30:27;2.67;;;0.90;;
20306;SDS011;10312;52.434;13.206;2023-01-28T11:32:56;5.35;;;0.95;;
20306;SDS011;10312;52.434;13.206;2023-01-28T11:35:29;3.45;;;0.80;;
20306;SDS011;10312;52.434;13.206;2023-01-28T11:37:57;3.22;;;0.70;;
20306;SDS011;10312;52.434;13.206;2023-01-28T11:40:25;2.15;;;0.80;;
20306;SDS011;10312;52.434;13.206;2023-01-28T11:42:53;1.98;;;0.73;;
20306;SDS011;10312;52.434;13.206;2023-01-28T11:48:12;1.60;;;0.68;;
20306;SDS011;10312;52.434;13.206;2023-01-28T11:50:50;1.88;;;0.60;;
20306;SDS011;10312;52.434;13.206;2023-01-28T11:53:26;1.83;;;0.88;;
20306;SDS011;10312;52.434;13.206;2023-01-28T11:56:23;3.72;;;0.60;;
20306;SDS011;10312;52.434;13.206;2023-01-28T12:01:55;5.15;;;0.90;;
20306;SDS011;10312;52.434;13.206;2023-01-28T12:07:15;3.08;;;0.90;;
20306;SDS011;10312;52.434;13.206;2023-01-28T12:13:04;2.22;;;1.05;;
20306;SDS011;10312;52.434;13.206;2023-01-28T12:15:47;1.95;;;1.05;;
20306;SDS011;10312;52.434;13.206;2023-01-28T12:18:26;2.25;;;0.82;;
20306;SDS011;10312;52.434;13.206;2023-01-28T12:21:20;2.50;;;1.40;;
20306;SDS011;10312;52.434;13.206;2023-01-28T12:30:21;1.75;;;1.02;;
20306;SDS011;10312;52.434;13.206;2023-01-28T12:33:27;4.40;;;1.52;;
20306;SDS011;10312;52.434;13.206;2023-01-28T12:38:56;4.38;;;1.15;;
20306;SDS011;10312;52.434;13.206;2023-01-28T12:41:46;2.72;;;0.75;;
20306;SDS011;10312;52.434;13.206;2023-01-28T12:44:20;2.17;;;0.60;;
20306;SDS011;10312;52.434;13.206;2023-01-28T12:47:00;2.38;;;0.75;;
20306;SDS011;10312;52.434;13.206;2023-01-28T12:52:15;3.55;;;0.70;;
20306;SDS011;10312;52.434;13.206;2023-01-28T12:54:53;3.15;;;0.80;;
20306;SDS011;10312;52.434;13.206;2023-01-28T12:57:27;0.88;;;0.40;;
20306;SDS011;10312;52.434;13.206;2023-01-28T13:00:15;1.75;;;0.40;;
20306;SDS011;10312;52.434;13.206;2023-01-28T13:02:56;1.70;;;0.65;;
20306;SDS011;10312;52.434;13.206;2023-01-28T13:05:25;1.30;;;0.70;;
20306;SDS011;10312;52.434;13.206;2023-01-28T13:08:05;1.90;;;0.90;;
20306;SDS011;10312;52.434;13.206;2023-01-28T13:10:41;2.85;;;1.00;;
20306;SDS011;10312;52.434;13.206;2023-01-28T13:13:14;2.47;;;1.25;;
20306;SDS011;10312;52.434;13.206;2023-01-28T13:15:53;2.63;;;0.95;;
20306;SDS011;10312;52.434;13.206;2023-01-28T13:21:12;2.67;;;0.50;;
20306;SDS011;10312;52.434;13.206;2023-01-28T13:28:50;1.02;;;0.60;;
20306;SDS011;10312;52.434;13.206;2023-01-28T13:31:18;1.40;;;0.70;;
20306;SDS011;10312;52.434;13.206;2023-01-28T13:36:24;3.03;;;0.70;;
20306;SDS011;10312;52.434;13.206;2023-01-28T13:39:05;1.35;;;0.60;;
20306;SDS011;10312;52.434;13.206;2023-01-28T13:46:57;3.25;;;1.42;;
20306;SDS011;10312;52.434;13.206;2023-01-28T13:49:46;4.25;;;1.10;;
20306;SDS011;10312;52.434;13.206;2023-01-28T13:52:22;1.90;;;0.88;;
20306;SDS011;10312;52.434;13.206;2023-01-28T13:54:54;2.83;;;0.80;;
20306;SDS011;10312;52.434;13.206;2023-01-28T13:57:30;3.88;;;0.65;;
20306;SDS011;10312;52.434;13.206;2023-01-28T14:00:19;1.70;;;0.60;;
20306;SDS011;10312;52.434;13.206;2023-01-28T14:03:17;0.80;;;0.47;;
20306;SDS011;10312;52.434;13.206;2023-01-28T14:09:36;1.83;;;0.93;;
20306;SDS011;10312;52.434;13.206;2023-01-28T14:12:09;0.93;;;0.60;;
20306;SDS011;10312;52.434;13.206;2023-01-28T14:20:16;1.08;;;0.65;;
20306;SDS011;10312;52.434;13.206;2023-01-28T14:22:45;3.53;;;0.70;;
20306;SDS011;10312;52.434;13.206;2023-01-28T14:25:21;2.95;;;1.02;;
20306;SDS011;10312;52.434;13.206;2023-01-28T14:27:57;3.75;;;0.70;;
20306;SDS011;10312;52.434;13.206;2023-01-28T14:30:36;1.00;;;0.68;;
20306;SDS011;10312;52.434;13.206;2023-01-28T14:33:09;1.00;;;0.60;;
20306;SDS011;10312;52.434;13.206;2023-01-28T14:35:37;2.00;;;0.70;;
20306;SDS011;10312;52.434;13.206;2023-01-28T14:38:06;3.88;;;1.00;;
20306;SDS011;10312;52.434;13.206;2023-01-28T14:40:38;1.55;;;0.98;;
20306;SDS011;10312;52.434;13.206;2023-01-28T14:43:06;2.08;;;0.80;;
20306;SDS011;10312;52.434;13.206;2023-01-28T14:57:02;2.20;;;0.93;;
20306;SDS011;10312;52.434;13.206;2023-01-28T14:59:34;2.88;;;1.55;;
20306;SDS011;10312;52.434;13.206;2023-01-28T15:02:16;2.80;;;1.20;;
20306;SDS011;10312;52.434;13.206;2023-01-28T15:04:53;2.95;;;1.20;;
20306;SDS011;10312;52.434;13.206;2023-01-28T15:07:24;1.90;;;0.80;;
20306;SDS011;10312;52.434;13.206;2023-01-28T15:10:03;1.20;;;0.60;;
20306;SDS011;10312;52.434;13.206;2023-01-28T15:12:32;1.00;;;0.68;;
20306;SDS011;10312;52.434;13.206;2023-01-28T15:15:10;1.42;;;0.50;;
20306;SDS011;10312;52.434;13.206;2023-01-28T15:17:38;2.72;;;0.98;;
20306;SDS011;10312;52.434;13.206;2023-01-28T15:20:05;1.27;;;0.52;;
20306;SDS011;10312;52.434;13.206;2023-01-28T15:22:32;0.95;;;0.47;;
20306;SDS011;10312;52.434;13.206;2023-01-28T15:24:59;3.78;;;0.80;;
20306;SDS011;10312;52.434;13.206;2023-01-28T15:27:27;2.25;;;0.98;;
20306;SDS011;10312;52.434;13.206;2023-01-28T15:29:56;2.35;;;1.13;;
20306;SDS011;10312;52.434;13.206;2023-01-28T15:32:28;4.18;;;1.20;;
20306;SDS011;10312;52.434;13.206;2023-01-28T15:34:59;2.97;;;1.10;;
20306;SDS011;10312;52.434;13.206;2023-01-28T15:37:27;1.73;;;1.00;;
20306;SDS011;10312;52.434;13.206;2023-01-28T15:40:01;1.95;;;0.90;;
20306;SDS011;10312;52.434;13.206;2023-01-28T15:42:31;4.88;;;1.20;;
20306;SDS011;10312;52.434;13.206;2023-01-28T15:44:58;2.15;;;1.33;;
20306;SDS011;10312;52.434;13.206;2023-01-28T15:47:27;2.40;;;1.20;;
20306;SDS011;10312;52.434;13.206;2023-01-28T15:49:58;3.13;;;1.40;;
20306;SDS011;10312;52.434;13.206;2023-01-28T15:52:31;4.22;;;1.10;;
20306;SDS011;10312;52.434;13.206;2023-01-28T15:54:59;3.08;;;1.25;;
20306;SDS011;10312;52.434;13.206;2023-01-28T15:57:28;3.33;;;1.42;;
20306;SDS011;10312;52.434;13.206;2023-01-28T16:02:41;2.08;;;0.70;;
20306;SDS011;10312;52.434;13.206;2023-01-28T16:05:23;1.40;;;0.80;;
20306;SDS011;10312;52.434;13.206;2023-01-28T16:07:55;1.88;;;0.90;;
20306;SDS011;10312;52.434;13.206;2023-01-28T16:10:26;2.88;;;1.08;;
20306;SDS011;10312;52.434;13.206;2023-01-28T16:13:00;4.28;;;1.08;;
20306;SDS011;10312;52.434;13.206;2023-01-28T16:15:30;3.17;;;1.50;;
20306;SDS011;10312;52.434;13.206;2023-01-28T16:17:57;5.22;;;1.67;;
20306;SDS011;10312;52.434;13.206;2023-01-28T16:20:25;4.18;;;2.05;;
20306;SDS011;10312;52.434;13.206;2023-01-28T16:22:53;4.70;;;2.45;;
20306;SDS011;10312;52.434;13.206;2023-01-28T16:27:47;4.82;;;2.60;;
20306;SDS011;10312;52.434;13.206;2023-01-28T16:30:15;4.40;;;2.13;;
20306;SDS011;10312;52.434;13.206;2023-01-28T16:32:42;3.78;;;2.03;;
20306;SDS011;10312;52.434;13.206;2023-01-28T16:35:16;3.67;;;1.80;;
20306;SDS011;10312;52.434;13.206;2023-01-28T16:37:45;3.47;;;1.70;;
20306;SDS011;10312;52.434;13.206;2023-01-28T16:40:14;7.05;;;1.30;;
20306;SDS011;10312;52.434;13.206;2023-01-28T16:42:42;2.40;;;1.27;;